Time,TemperatureF,DewpointF,PressureIn,WindDirection,WindDirectionDegrees,WindSpeedMPH,WindSpeedGustMPH,Humidity,HourlyPrecipIn,Conditions,Clouds,dailyrainin,SoftwareType,DateUTC
2013-03-04 00:00:00,34.8,31.3,29.93,WNW,295,4.0,4.0,87,0.00,CLR,,0.23,WeatherDisplay:10.37,2013-03-04 07:00:00,
2013-03-04 00:05:00,34.9,31.4,29.93,West,280,5.8,5.8,87,0.00,RA,,0.00,WeatherDisplay:10.37,2013-03-04 07:05:00,
2013-03-04 00:10:00,34.8,31.6,29.94,NW,317,10.4,10.4,88,0.00,RA,,0.00,WeatherDisplay:10.37,2013-03-04 07:10:00,
2013-03-04 00:15:00,34.4,31.5,29.94,WNW,303,6.0,13.0,89,0.00,CLR,CLR,0.00,WeatherDisplay:10.37,2013-03-04 07:15:00,
2013-03-04 00:20:00,33.8,31.2,29.94,West,280,9.2,9.2,90,0.00,CLR,,0.00,WeatherDisplay:10.37,2013-03-04 07:20:00,
2013-03-04 00:25:00,33.5,31.2,29.94,West,281,3.5,3.5,91,0.00,CLR,,0.00,WeatherDisplay:10.37,2013-03-04 07:25:00,
2013-03-04 00:30:00,33.3,31.0,29.94,West,262,2.3,2.3,91,0.00,CLR,,0.00,WeatherDisplay:10.37,2013-03-04 07:30:00,
2013-03-04 00:35:00,33.2,31.1,29.94,NNW,328,5.8,5.8,92,0.00,CLR,,0.00,WeatherDisplay:10.37,2013-03-04 07:35:00,
2013-03-04 00:40:00,33.1,31.0,29.94,WNW,298,3.5,3.5,92,0.00,CLR,,0.00,WeatherDisplay:10.37,2013-03-04 07:40:00,
2013-03-04 00:45:00,33.1,30.8,29.94,NW,317,9.2,9.2,91,0.00,CLR,,0.00,WeatherDisplay:10.37,2013-03-04 07:45:00,
2013-03-04 00:50:00,33.4,30.5,29.94,NW,304,6.9,7.9,89,0.00,CLR,,0.00,WeatherDisplay:10.37,2013-03-04 07:50:00,
2013-03-04 00:55:00,33.6,30.1,29.94,SW,236,15.0,15.0,87,0.00,CLR,,0.00,WeatherDisplay:10.37,2013-03-04 07:55:00,
2013-03-04 01:00:00,33.8,29.8,29.94,WNW,302,8.1,8.1,85,0.00,CLR,,0.00,WeatherDisplay:10.37,2013-03-04 08:00:00,
2013-03-04 01:05:00,33.8,29.8,29.94,WNW,293,18.4,18.4,85,0.00,CLR,,0.00,WeatherDisplay:10.37,2013-03-04 08:05:00,
2013-03-04 01:10:00,33.8,29.5,29.94,NNW,337,4.6,4.6,84,0.00,CLR,,0.00,WeatherDisplay:10.37,2013-03-04 08:10:00,
2013-03-04 01:15:00,33.7,29.7,29.94,WSW,242,6.9,6.9,85,0.00,CLR,,0.00,WeatherDisplay:10.37,2013-03-04 08:15:00,
2013-03-04 01:20:00,33.6,29.6,29.94,WNW,303,4.6,4.6,85,0.00,CLR,,0.00,WeatherDisplay:10.37,2013-03-04 08:20:00,
2013-03-04 01:25:00,33.5,29.2,29.93,NW,308,11.5,11.5,84,0.00,CLR,,0.00,WeatherDisplay:10.37,2013-03-04 08:25:00,
2013-03-04 01:30:00,33.6,29.0,29.93,NNW,330,11.5,11.5,83,0.00,CLR,,0.00,WeatherDisplay:10.37,2013-03-04 08:30:00,
2013-03-04 01:35:00,33.6,29.3,29.93,NW,306,8.1,8.1,84,0.00,CLR,,0.00,WeatherDisplay:10.37,2013-03-04 08:35:00,
2013-03-04 01:40:00,33.5,29.2,29.93,NNW,328,4.6,4.6,84,0.00,CLR,,0.00,WeatherDisplay:10.37,2013-03-04 08:40:00,
2013-03-04 01:45:00,33.4,29.1,29.93,WSW,247,8.1,8.1,84,0.00,CLR,,0.00,WeatherDisplay:10.37,2013-03-04 08:45:00,
2013-03-04 01:50:00,33.3,29.0,29.93,West,267,11.5,11.5,84,0.00,CLR,,0.00,WeatherDisplay:10.37,2013-03-04 08:50:00,
2013-03-04 01:55:00,33.3,28.4,29.93,NW,308,5.8,5.8,82,0.00,CLR,,0.00,WeatherDisplay:10.37,2013-03-04 08:55:00,
2013-03-04 02:00:00,33.2,28.6,29.93,NW,305,7.0,7.0,83,0.00,CLR,,0.00,WeatherDisplay:10.37,2013-03-04 09:00:00,
2013-03-04 02:05:00,33.1,28.2,29.93,NW,304,11.5,11.5,82,0.00,CLR,,0.00,WeatherDisplay:10.37,2013-03-04 09:05:00,
2013-03-04 02:10:00,32.9,28.0,29.93,WNW,302,9.2,9.2,82,0.00,CLR,,0.00,WeatherDisplay:10.37,2013-03-04 09:10:00,
2013-03-04 02:15:00,32.8,27.9,29.94,WNW,299,3.5,3.5,82,0.00,CLR,,0.00,WeatherDisplay:10.37,2013-03-04 09:15:00,
2013-03-04 02:20:00,32.7,27.8,29.94,WNW,303,10.4,10.4,82,0.00,CLR,,0.00,WeatherDisplay:10.37,2013-03-04 09:20:00,
2013-03-04 02:25:00,32.6,27.4,29.94,WNW,296,8.1,8.1,81,0.00,CLR,,0.00,WeatherDisplay:10.37,2013-03-04 09:25:00,
2013-03-04 02:30:00,32.5,27.0,29.94,NW,305,10.4,10.4,80,0.00,CLR,,0.00,WeatherDisplay:10.37,2013-03-04 09:30:00,
2013-03-04 02:35:00,32.4,26.6,29.95,WSW,254,20.7,20.7,79,0.00,CLR,,0.00,WeatherDisplay:10.37,2013-03-04 09:35:00,
2013-03-04 02:40:00,32.3,26.8,29.95,NW,320,10.4,10.4,80,0.00,CLR,,0.00,WeatherDisplay:10.37,2013-03-04 09:40:00,
2013-03-04 02:45:00,32.2,26.7,29.95,WNW,300,8.1,8.1,80,0.00,CLR,,0.00,WeatherDisplay:10.37,2013-03-04 09:45:00,
2013-03-04 02:50:00,32.1,26.6,29.95,NW,321,4.6,4.6,80,0.00,CLR,,0.00,WeatherDisplay:10.37,2013-03-04 09:50:00,
2013-03-04 02:55:00,31.9,26.4,29.95,NW,311,9.2,9.2,80,0.00,CLR,,0.00,WeatherDisplay:10.37,2013-03-04 09:55:00,
2013-03-04 03:00:00,31.8,26.0,29.95,NW,314,9.2,9.2,79,0.00,CLR,,0.00,WeatherDisplay:10.37,2013-03-04 10:00:00,
2013-03-04 03:05:00,31.6,25.5,29.95,NW,311,4.6,4.6,78,0.00,CLR,,0.00,WeatherDisplay:10.37,2013-03-04 10:05:00,
2013-03-04 03:10:00,31.4,25.3,29.95,WNW,290,11.5,11.5,78,0.00,CLR,,0.00,WeatherDisplay:10.37,2013-03-04 10:10:00,
2013-03-04 03:15:00,31.2,25.1,29.95,WNW,294,11.5,11.5,78,0.00,CLR,,0.00,WeatherDisplay:10.37,2013-03-04 10:15:00,
2013-03-04 03:20:00,31.0,24.6,29.95,WNW,300,2.3,2.3,77,0.00,CLR,,0.00,WeatherDisplay:10.37,2013-03-04 10:20:00,
2013-03-04 03:25:00,30.9,24.8,29.95,WNW,299,3.5,3.5,78,0.00,CLR,,0.00,WeatherDisplay:10.37,2013-03-04 10:25:00,
2013-03-04 03:30:00,30.8,24.4,29.95,NW,317,4.6,4.6,77,0.00,CLR,,0.00,WeatherDisplay:10.37,2013-03-04 10:30:00,
2013-03-04 03:35:00,30.7,24.7,29.95,NW,317,11.5,11.5,78,0.00,CLR,,0.00,WeatherDisplay:10.37,2013-03-04 10:35:00,
2013-03-04 03:40:00,30.6,24.9,29.96,NNW,331,1.1,1.1,79,0.00,CLR,,0.00,WeatherDisplay:10.37,2013-03-04 10:40:00,
2013-03-04 03:45:00,30.6,24.9,29.96,West,268,2.3,2.3,79,0.00,CLR,,0.00,WeatherDisplay:10.37,2013-03-04 10:45:00,
2013-03-04 03:50:00,30.5,24.1,29.95,SW,225,8.0,8.0,77,0.00,CLR,,0.00,WeatherDisplay:10.37,2013-03-04 10:50:00,
2013-03-04 03:55:00,30.4,23.7,29.95,West,265,4.6,4.6,76,0.00,CLR,,0.00,WeatherDisplay:10.37,2013-03-04 10:55:00,
2013-03-04 04:00:00,30.3,24.3,29.96,West,267,2.3,2.3,78,0.00,CLR,,0.00,WeatherDisplay:10.37,2013-03-04 11:00:00,
2013-03-04 04:05:00,30.2,22.9,29.96,WNW,292,4.6,4.6,74,0.00,CLR,,0.00,WeatherDisplay:10.37,2013-03-04 11:05:00,
2013-03-04 04:10:00,30.1,23.1,29.96,WNW,298,3.5,3.5,75,0.00,CLR,,0.00,WeatherDisplay:10.37,2013-03-04 11:10:00,
2013-03-04 04:15:00,30.0,22.7,29.96,WNW,296,4.6,4.6,74,0.00,CLR,,0.00,WeatherDisplay:10.37,2013-03-04 11:15:00,
2013-03-04 04:20:00,29.9,22.9,29.97,NW,312,3.5,3.5,75,0.00,CLR,,0.00,WeatherDisplay:10.37,2013-03-04 11:20:00,
2013-03-04 04:25:00,29.8,22.5,29.97,NW,311,3.5,3.5,74,0.00,CLR,,0.00,WeatherDisplay:10.37,2013-03-04 11:25:00,
2013-03-04 04:30:00,29.7,22.1,29.97,NW,310,4.6,4.6,73,0.00,CLR,,0.00,WeatherDisplay:10.37,2013-03-04 11:30:00,
2013-03-04 04:35:00,29.7,22.4,29.97,SW,234,3.5,3.5,74,0.00,CLR,,0.00,WeatherDisplay:10.37,2013-03-04 11:35:00,
2013-03-04 04:40:00,29.5,21.9,29.97,West,267,2.3,2.3,73,0.00,CLR,,0.00,WeatherDisplay:10.37,2013-03-04 11:40:00,
2013-03-04 04:45:00,29.4,22.1,29.97,WNW,292,3.5,3.5,74,0.00,CLR,,0.00,WeatherDisplay:10.37,2013-03-04 11:45:00,
2013-03-04 04:50:00,29.3,22.0,29.97,WNW,292,0.0,0.0,74,0.00,CLR,,0.00,WeatherDisplay:10.37,2013-03-04 11:50:00,
2013-03-04 04:55:00,29.1,22.5,29.97,WNW,292,1.1,1.1,76,0.00,CLR,,0.00,WeatherDisplay:10.37,2013-03-04 11:55:00,
2013-03-04 05:00:00,29.0,21.4,29.97,SW,222,5.8,5.8,73,0.00,CLR,,0.00,WeatherDisplay:10.37,2013-03-04 12:00:00,
2013-03-04 05:05:00,29.0,21.4,29.97,NW,305,3.5,3.5,73,0.00,CLR,,0.00,WeatherDisplay:10.37,2013-03-04 12:05:00,
2013-03-04 05:10:00,28.9,21.7,29.97,NW,313,5.8,5.8,74,0.00,CLR,,0.00,WeatherDisplay:10.37,2013-03-04 12:10:00,
2013-03-04 05:15:00,28.9,21.3,29.98,SSW,198,2.3,2.3,73,0.00,CLR,,0.00,WeatherDisplay:10.37,2013-03-04 12:15:00,
2013-03-04 05:20:00,29.0,20.4,29.98,NNW,336,11.5,11.5,70,0.00,CLR,,0.00,WeatherDisplay:10.37,2013-03-04 12:20:00,
2013-03-04 05:25:00,29.0,21.1,29.98,WNW,302,2.3,2.3,72,0.00,CLR,,0.00,WeatherDisplay:10.37,2013-03-04 12:25:00,
2013-03-04 05:30:00,29.0,20.4,29.98,West,279,2.3,2.3,70,0.00,CLR,,0.00,WeatherDisplay:10.37,2013-03-04 12:30:00,
2013-03-04 05:35:00,28.9,20.3,29.98,West,274,3.5,3.5,70,0.00,CLR,,0.00,WeatherDisplay:10.37,2013-03-04 12:35:00,
2013-03-04 05:40:00,28.7,19.5,29.99,NW,308,4.6,4.6,68,0.00,CLR,,0.00,WeatherDisplay:10.37,2013-03-04 12:40:00,
2013-03-04 05:45:00,28.6,19.4,29.99,NW,312,8.1,8.1,68,0.00,CLR,,0.00,WeatherDisplay:10.37,2013-03-04 12:45:00,
2013-03-04 05:50:00,28.5,19.3,29.99,WNW,294,9.2,9.2,68,0.00,CLR,,0.00,WeatherDisplay:10.37,2013-03-04 12:50:00,
2013-03-04 05:55:00,28.6,19.4,29.99,West,275,8.1,8.1,68,0.00,CLR,,0.00,WeatherDisplay:10.37,2013-03-04 12:55:00,
2013-03-04 06:00:00,28.5,19.3,29.99,NW,313,13.8,13.8,68,0.00,CLR,,0.00,WeatherDisplay:10.37,2013-03-04 13:00:00,
2013-03-04 06:05:00,28.6,19.0,29.99,WNW,302,13.8,13.8,67,0.00,CLR,,0.00,WeatherDisplay:10.37,2013-03-04 13:05:00,
2013-03-04 06:10:00,28.6,19.4,29.99,WNW,290,3.5,3.5,68,0.00,CLR,,0.00,WeatherDisplay:10.37,2013-03-04 13:10:00,
2013-03-04 06:15:00,28.5,19.3,29.99,NW,315,5.8,5.8,68,0.00,CLR,,0.00,WeatherDisplay:10.37,2013-03-04 13:15:00,
2013-03-04 06:20:00,28.3,19.4,29.99,WNW,296,6.0,6.0,69,0.00,CLR,,0.00,WeatherDisplay:10.37,2013-03-04 13:20:00,
2013-03-04 06:25:00,28.1,19.2,29.99,WNW,296,8.1,8.1,69,0.00,CLR,,0.00,WeatherDisplay:10.37,2013-03-04 13:25:00,
2013-03-04 06:30:00,27.9,19.0,30.00,West,267,1.1,1.1,69,0.00,CLR,,0.00,WeatherDisplay:10.37,2013-03-04 13:30:00,
2013-03-04 06:35:00,27.8,18.9,30.00,NW,304,3.5,3.5,69,0.00,CLR,,0.00,WeatherDisplay:10.37,2013-03-04 13:35:00,
2013-03-04 06:40:00,27.6,18.8,30.00,East,80,4.6,4.6,69,0.00,CLR,,0.00,WeatherDisplay:10.37,2013-03-04 13:40:00,
2013-03-04 06:45:00,27.5,17.6,29.99,WNW,294,6.9,6.9,66,0.00,CLR,,0.00,WeatherDisplay:10.37,2013-03-04 13:45:00,
2013-03-04 06:50:00,27.4,17.2,30.00,NE,56,6.9,6.9,65,0.00,CLR,,0.00,WeatherDisplay:10.37,2013-03-04 13:50:00,
2013-03-04 06:55:00,27.1,17.2,30.01,WNW,296,5.8,5.8,66,0.00,CLR,,0.00,WeatherDisplay:10.37,2013-03-04 13:55:00,
2013-03-04 07:00:00,26.8,16.6,30.01,WNW,286,5.0,7.0,65,0.00,CLR,CLR,0.00,WeatherDisplay:10.37,2013-03-04 14:00:00,
2013-03-04 07:05:00,26.5,16.3,30.01,NW,323,11.5,11.5,65,0.00,CLR,,0.00,WeatherDisplay:10.37,2013-03-04 14:05:00,
2013-03-04 07:10:00,26.3,16.1,30.01,NNW,339,12.0,12.0,65,0.00,CLR,,0.00,WeatherDisplay:10.37,2013-03-04 14:10:00,
2013-03-04 07:15:00,26.0,15.8,30.02,NNW,328,9.2,9.2,65,0.00,CLR,,0.00,WeatherDisplay:10.37,2013-03-04 14:15:00,
2013-03-04 07:20:00,25.7,15.6,30.02,NW,318,4.6,4.6,65,0.00,CLR,,0.00,WeatherDisplay:10.37,2013-03-04 14:20:00,
2013-03-04 07:25:00,25.5,15.4,30.02,NW,308,3.5,3.5,65,0.00,CLR,,0.00,WeatherDisplay:10.37,2013-03-04 14:25:00,
2013-03-04 07:30:00,25.3,15.2,30.03,NW,310,6.9,6.9,65,0.00,CLR,,0.00,WeatherDisplay:10.37,2013-03-04 14:30:00,
2013-03-04 07:35:00,25.2,15.1,30.03,WNW,300,3.5,3.5,65,0.00,CLR,,0.00,WeatherDisplay:10.37,2013-03-04 14:35:00,
2013-03-04 07:40:00,25.1,14.6,30.03,WNW,295,4.6,4.6,64,0.00,CLR,,0.00,WeatherDisplay:10.37,2013-03-04 14:40:00,
2013-03-04 07:45:00,25.1,14.6,30.04,WNW,284,5.8,5.8,64,0.00,CLR,,0.00,WeatherDisplay:10.37,2013-03-04 14:45:00,
2013-03-04 07:50:00,25.0,14.5,30.05,NW,318,5.8,5.8,64,0.00,CLR,,0.00,WeatherDisplay:10.37,2013-03-04 14:50:00,
2013-03-04 07:55:00,25.0,14.2,30.05,NW,306,8.1,8.1,63,0.00,CLR,,0.00,WeatherDisplay:10.37,2013-03-04 14:55:00,
2013-03-04 08:00:00,24.9,14.4,30.05,NNW,330,8.1,8.1,64,0.00,CLR,,0.00,WeatherDisplay:10.37,2013-03-04 15:00:00,
2013-03-04 08:05:00,24.8,14.3,30.06,NW,316,9.2,9.2,64,0.00,CLR,,0.00,WeatherDisplay:10.37,2013-03-04 15:05:00,
2013-03-04 08:10:00,24.8,13.6,30.06,NW,309,8.1,8.1,62,0.00,CLR,,0.00,WeatherDisplay:10.37,2013-03-04 15:10:00,
2013-03-04 08:15:00,24.8,13.6,30.07,North,355,4.6,4.6,62,0.00,CLR,,0.00,WeatherDisplay:10.37,2013-03-04 15:15:00,
2013-03-04 08:20:00,24.8,13.2,30.07,NW,306,9.2,9.2,61,0.00,CLR,,0.00,WeatherDisplay:10.37,2013-03-04 15:20:00,
2013-03-04 08:25:00,25.0,12.7,30.08,WNW,284,11.5,11.5,59,0.00,CLR,,0.00,WeatherDisplay:10.37,2013-03-04 15:25:00,
2013-03-04 08:30:00,24.9,12.6,30.09,NW,308,5.8,5.8,59,0.00,CLR,,0.00,WeatherDisplay:10.37,2013-03-04 15:30:00,
2013-03-04 08:35:00,25.0,13.1,30.09,NW,309,4.0,4.0,60,0.00,CLR,,0.00,WeatherDisplay:10.37,2013-03-04 15:35:00,
2013-03-04 08:40:00,25.1,13.2,30.09,WNW,297,6.0,6.0,60,0.00,CLR,,0.00,WeatherDisplay:10.37,2013-03-04 15:40:00,
2013-03-04 08:45:00,25.2,13.2,30.10,NW,304,11.5,11.5,60,0.00,CLR,,0.00,WeatherDisplay:10.37,2013-03-04 15:45:00,
2013-03-04 08:50:00,25.1,12.4,30.10,NW,315,11.5,11.5,58,0.00,CLR,,0.00,WeatherDisplay:10.37,2013-03-04 15:50:00,
2013-03-04 08:55:00,25.0,11.9,30.10,WNW,298,12.7,12.7,57,0.00,CLR,,0.00,WeatherDisplay:10.37,2013-03-04 15:55:00,
2013-03-04 09:00:00,25.1,11.6,30.10,WSW,242,12.7,12.7,56,0.00,CLR,,0.00,WeatherDisplay:10.37,2013-03-04 16:00:00,
2013-03-04 09:05:00,25.2,12.1,30.11,WNW,295,15.0,15.0,57,0.00,CLR,,0.00,WeatherDisplay:10.37,2013-03-04 16:05:00,
2013-03-04 09:10:00,25.4,11.9,30.11,NW,322,11.5,11.5,56,0.00,CLR,,0.00,WeatherDisplay:10.37,2013-03-04 16:10:00,
2013-03-04 09:15:00,25.5,11.1,30.11,NNW,348,10.4,10.4,54,0.00,CLR,,0.00,WeatherDisplay:10.37,2013-03-04 16:15:00,
2013-03-04 09:20:00,25.6,11.7,30.12,WNW,303,5.8,5.8,55,0.00,CLR,,0.00,WeatherDisplay:10.37,2013-03-04 16:20:00,
2013-03-04 09:25:00,25.8,11.8,30.12,NW,317,8.1,8.1,55,0.00,CLR,,0.00,WeatherDisplay:10.37,2013-03-04 16:25:00,
2013-03-04 09:30:00,25.9,11.9,30.12,WNW,301,10.4,10.4,55,0.00,CLR,,0.00,WeatherDisplay:10.37,2013-03-04 16:30:00,
2013-03-04 09:35:00,26.0,11.2,30.13,WNW,296,13.8,13.8,53,0.00,CLR,,0.00,WeatherDisplay:10.37,2013-03-04 16:35:00,
2013-03-04 09:40:00,25.8,10.1,30.13,West,279,16.1,16.1,51,0.00,CLR,,0.00,WeatherDisplay:10.37,2013-03-04 16:40:00,
2013-03-04 09:45:00,25.8,9.2,30.14,NW,315,11.5,11.5,49,0.00,CLR,,0.00,WeatherDisplay:10.37,2013-03-04 16:45:00,
2013-03-04 09:50:00,25.8,8.8,30.14,NW,304,11.5,11.5,48,0.00,CLR,,0.00,WeatherDisplay:10.37,2013-03-04 16:50:00,
2013-03-04 09:55:00,25.8,8.3,30.14,West,267,8.1,8.1,47,0.00,CLR,,0.00,WeatherDisplay:10.37,2013-03-04 16:55:00,
2013-03-04 10:00:00,26.0,9.0,30.15,West,277,11.5,11.5,48,0.00,CLR,,0.00,WeatherDisplay:10.37,2013-03-04 17:00:00,
2013-03-04 10:05:00,26.0,9.0,30.15,WNW,301,11.5,11.5,48,0.01,RA,,0.01,WeatherDisplay:10.37,2013-03-04 17:05:00,
2013-03-04 10:10:00,26.1,8.6,30.15,WNW,288,5.8,5.8,47,0.01,RA,,0.01,WeatherDisplay:10.37,2013-03-04 17:10:00,
2013-03-04 10:15:00,26.3,9.7,30.15,NW,313,6.9,6.9,49,0.01,CLR,,0.01,WeatherDisplay:10.37,2013-03-04 17:15:00,
2013-03-04 10:20:00,26.5,9.0,30.16,NW,323,9.2,9.2,47,0.01,CLR,,0.01,WeatherDisplay:10.37,2013-03-04 17:20:00,
2013-03-04 10:25:00,26.7,10.1,30.16,SW,220,3.5,3.5,49,0.01,CLR,,0.01,WeatherDisplay:10.37,2013-03-04 17:25:00,
2013-03-04 10:30:00,27.1,9.5,30.16,WNW,295,6.9,6.9,47,0.01,CLR,,0.01,WeatherDisplay:10.37,2013-03-04 17:30:00,
2013-03-04 10:35:00,27.3,10.2,30.16,WNW,294,5.8,5.8,48,0.01,CLR,,0.01,WeatherDisplay:10.37,2013-03-04 17:35:00,
2013-03-04 10:40:00,27.8,10.6,30.17,NW,315,9.2,9.2,48,0.01,CLR,,0.01,WeatherDisplay:10.37,2013-03-04 17:40:00,
2013-03-04 10:45:00,27.9,10.2,30.17,West,271,6.9,6.9,47,0.01,CLR,,0.01,WeatherDisplay:10.37,2013-03-04 17:45:00,
2013-03-04 10:50:00,28.0,9.4,30.17,WNW,302,11.5,11.5,45,0.01,CLR,,0.01,WeatherDisplay:10.37,2013-03-04 17:50:00,
2013-03-04 10:55:00,28.1,10.4,30.17,NE,54,1.1,1.1,47,0.02,RA,,0.02,WeatherDisplay:10.37,2013-03-04 17:55:00,
2013-03-04 11:00:00,28.3,9.1,30.17,WNW,287,4.6,4.6,44,0.02,RA,,0.02,WeatherDisplay:10.37,2013-03-04 18:00:00,
2013-03-04 11:05:00,28.3,11.1,30.17,NW,306,8.1,8.1,48,0.01,CLR,,0.02,WeatherDisplay:10.37,2013-03-04 18:05:00,
2013-03-04 11:10:00,28.6,9.9,30.17,NW,311,3.5,3.5,45,0.01,CLR,,0.02,WeatherDisplay:10.37,2013-03-04 18:10:00,
2013-03-04 11:15:00,28.7,10.5,30.17,NW,308,6.9,6.9,46,0.01,CLR,,0.02,WeatherDisplay:10.37,2013-03-04 18:15:00,
2013-03-04 11:20:00,28.7,9.0,30.18,WNW,301,8.1,8.1,43,0.01,CLR,,0.02,WeatherDisplay:10.37,2013-03-04 18:20:00,
2013-03-04 11:25:00,28.8,9.6,30.18,NW,306,5.8,5.8,44,0.01,CLR,,0.02,WeatherDisplay:10.37,2013-03-04 18:25:00,
2013-03-04 11:29:00,29.0,9.3,30.18,West,277,6.9,6.9,43,0.01,CLR,,0.02,WeatherDisplay:10.37,2013-03-04 18:29:00,
2013-03-04 11:34:00,28.9,7.6,30.18,NE,35,4.6,4.6,40,0.02,RA,,0.03,WeatherDisplay:10.37,2013-03-04 18:34:00,
2013-03-04 11:39:00,28.8,8.6,30.18,NNW,328,2.3,2.3,42,0.02,RA,,0.03,WeatherDisplay:10.37,2013-03-04 18:39:00,
2013-03-04 11:44:00,29.0,9.3,30.18,SW,236,5.8,5.8,43,0.02,CLR,,0.03,WeatherDisplay:10.37,2013-03-04 18:44:00,
2013-03-04 11:49:00,29.2,8.4,30.19,SW,236,9.2,9.2,41,0.02,CLR,,0.03,WeatherDisplay:10.37,2013-03-04 18:49:00,
2013-03-04 11:54:00,29.2,6.7,30.19,West,267,4.6,4.6,38,0.01,CLR,,0.03,WeatherDisplay:10.37,2013-03-04 18:54:00,
2013-03-04 11:59:00,28.9,7.0,30.19,WSW,241,4.6,4.6,39,0.01,CLR,,0.03,WeatherDisplay:10.37,2013-03-04 18:59:00,
2013-03-04 12:04:00,29.0,7.1,30.19,SW,229,4.0,4.0,39,0.01,CLR,,0.03,WeatherDisplay:10.37,2013-03-04 19:04:00,
2013-03-04 12:09:00,29.3,7.9,30.19,SW,236,4.0,4.0,40,0.01,CLR,,0.03,WeatherDisplay:10.37,2013-03-04 19:09:00,
2013-03-04 12:14:00,29.7,7.2,30.19,WSW,241,9.2,9.2,38,0.01,CLR,,0.03,WeatherDisplay:10.37,2013-03-04 19:14:00,
2013-03-04 12:19:00,29.7,6.6,30.19,WSW,239,4.6,4.6,37,0.01,CLR,,0.03,WeatherDisplay:10.37,2013-03-04 19:19:00,
2013-03-04 12:24:00,29.6,7.6,30.19,WNW,302,6.0,6.0,39,0.01,CLR,,0.03,WeatherDisplay:10.37,2013-03-04 19:24:00,
2013-03-04 12:29:00,29.6,7.6,30.19,WSW,258,4.6,4.6,39,0.01,CLR,,0.03,WeatherDisplay:10.37,2013-03-04 19:29:00,
2013-03-04 12:34:00,29.6,6.5,30.19,NW,317,3.5,3.5,37,0.00,CLR,,0.03,WeatherDisplay:10.37,2013-03-04 19:34:00,
2013-03-04 12:39:00,29.5,7.5,30.19,West,267,5.0,5.0,39,0.00,CLR,,0.03,WeatherDisplay:10.37,2013-03-04 19:39:00,
2013-03-04 12:44:00,29.6,7.1,30.19,WNW,284,2.3,2.3,38,0.00,CLR,,0.03,WeatherDisplay:10.37,2013-03-04 19:44:00,
2013-03-04 12:49:00,29.9,8.5,30.19,NW,306,3.5,3.5,40,0.00,CLR,,0.03,WeatherDisplay:10.37,2013-03-04 19:49:00,
2013-03-04 12:54:00,30.1,7.5,30.19,SW,229,3.0,3.0,38,0.00,CLR,,0.03,WeatherDisplay:10.37,2013-03-04 19:54:00,
2013-03-04 12:59:00,30.3,8.8,30.19,NNW,327,4.6,4.6,40,0.00,CLR,,0.03,WeatherDisplay:10.37,2013-03-04 19:59:00,
2013-03-04 13:04:00,30.1,8.7,30.19,NW,317,6.0,6.0,40,0.00,CLR,,0.03,WeatherDisplay:10.37,2013-03-04 20:04:00,
2013-03-04 13:09:00,29.8,7.8,30.19,NW,317,3.5,3.5,39,0.00,CLR,,0.03,WeatherDisplay:10.37,2013-03-04 20:09:00,
2013-03-04 13:14:00,29.9,8.5,30.19,West,275,5.8,5.8,40,0.00,CLR,,0.03,WeatherDisplay:10.37,2013-03-04 20:14:00,
2013-03-04 13:19:00,30.1,8.7,30.19,NW,308,4.0,4.0,40,0.00,CLR,,0.03,WeatherDisplay:10.37,2013-03-04 20:19:00,
2013-03-04 13:24:00,29.9,8.5,30.19,SW,229,3.0,3.0,40,0.00,CLR,,0.03,WeatherDisplay:10.37,2013-03-04 20:24:00,
2013-03-04 13:29:00,30.2,9.3,30.19,WNW,299,3.5,3.5,41,0.01,RA,,0.04,WeatherDisplay:10.37,2013-03-04 20:29:00,
2013-03-04 13:34:00,30.4,7.8,30.19,SW,229,3.5,3.5,38,0.01,RA,,0.04,WeatherDisplay:10.37,2013-03-04 20:34:00,
2013-03-04 13:39:00,30.6,9.1,30.19,SW,225,2.3,2.3,40,0.01,CLR,,0.04,WeatherDisplay:10.37,2013-03-04 20:39:00,
2013-03-04 13:44:00,30.8,6.9,30.19,NW,305,3.5,3.5,36,0.01,CLR,,0.04,WeatherDisplay:10.37,2013-03-04 20:44:00,
2013-03-04 13:49:00,30.5,7.9,30.19,WNW,302,2.3,2.3,38,0.01,CLR,,0.04,WeatherDisplay:10.37,2013-03-04 20:49:00,
2013-03-04 13:54:00,30.5,8.4,30.19,NW,316,5.8,5.8,39,0.01,CLR,,0.04,WeatherDisplay:10.37,2013-03-04 20:54:00,
2013-03-04 13:59:00,30.5,9.0,30.20,NNE,19,6.0,6.0,40,0.01,CLR,,0.04,WeatherDisplay:10.37,2013-03-04 20:59:00,
2013-03-04 14:04:00,30.5,7.9,30.20,NE,46,4.0,4.0,38,0.01,CLR,,0.04,WeatherDisplay:10.37,2013-03-04 21:04:00,
2013-03-04 14:09:00,30.6,9.1,30.20,North,5,3.5,3.5,40,0.01,CLR,,0.04,WeatherDisplay:10.37,2013-03-04 21:09:00,
2013-03-04 14:14:00,30.6,8.5,30.20,West,265,3.5,3.5,39,0.01,CLR,,0.04,WeatherDisplay:10.37,2013-03-04 21:14:00,
2013-03-04 14:19:00,30.8,9.8,30.20,NW,307,2.0,2.0,41,0.01,CLR,,0.04,WeatherDisplay:10.37,2013-03-04 21:19:00,
2013-03-04 14:24:00,30.9,8.8,30.20,SW,229,2.0,2.0,39,0.01,CLR,,0.04,WeatherDisplay:10.37,2013-03-04 21:24:00,
2013-03-04 14:29:00,31.0,9.5,30.20,WNW,296,2.3,2.3,40,0.00,CLR,,0.04,WeatherDisplay:10.37,2013-03-04 21:29:00,
2013-03-04 14:34:00,30.9,8.2,30.20,WNW,299,4.6,4.6,38,0.00,CLR,,0.04,WeatherDisplay:10.37,2013-03-04 21:34:00,
2013-03-04 14:39:00,30.7,8.6,30.20,West,259,2.3,2.3,39,0.00,CLR,,0.04,WeatherDisplay:10.37,2013-03-04 21:39:00,
2013-03-04 14:44:00,30.8,8.7,30.21,WNW,294,4.0,4.0,39,0.00,CLR,,0.04,WeatherDisplay:10.37,2013-03-04 21:44:00,
2013-03-04 14:49:00,30.6,8.0,30.21,WNW,298,4.0,4.0,38,0.00,CLR,,0.04,WeatherDisplay:10.37,2013-03-04 21:49:00,
2013-03-04 14:54:00,30.4,7.8,30.21,NE,47,3.5,3.5,38,0.00,CLR,,0.04,WeatherDisplay:10.37,2013-03-04 21:54:00,
2013-03-04 14:59:00,30.3,8.8,30.21,NNW,342,5.8,5.8,40,0.00,CLR,,0.04,WeatherDisplay:10.37,2013-03-04 21:59:00,
2013-03-04 15:04:00,30.2,8.7,30.22,NE,36,4.6,4.6,40,0.00,CLR,,0.04,WeatherDisplay:10.37,2013-03-04 22:04:00,
2013-03-04 15:09:00,30.1,8.7,30.22,NW,304,8.1,8.1,40,0.00,CLR,,0.04,WeatherDisplay:10.37,2013-03-04 22:09:00,
2013-03-04 15:14:00,30.1,8.7,30.22,NW,304,4.0,4.0,40,0.00,CLR,,0.04,WeatherDisplay:10.37,2013-03-04 22:14:00,
2013-03-04 15:19:00,30.2,9.3,30.22,WNW,290,6.9,6.9,41,0.00,CLR,,0.04,WeatherDisplay:10.37,2013-03-04 22:19:00,
2013-03-04 15:24:00,30.1,9.7,30.22,NW,304,3.5,3.5,42,0.00,CLR,,0.04,WeatherDisplay:10.37,2013-03-04 22:24:00,
2013-03-04 15:29:00,30.1,11.3,30.22,NW,316,8.0,8.0,45,0.00,CLR,,0.04,WeatherDisplay:10.37,2013-03-04 22:29:00,
2013-03-04 15:34:00,30.3,11.0,30.22,WNW,290,4.6,4.6,44,0.00,CLR,,0.04,WeatherDisplay:10.37,2013-03-04 22:34:00,
2013-03-04 15:39:00,30.3,12.0,30.23,NW,309,7.0,7.0,46,0.00,CLR,,0.04,WeatherDisplay:10.37,2013-03-04 22:39:00,
2013-03-04 15:44:00,30.4,11.6,30.23,NW,309,9.2,9.2,45,0.00,CLR,,0.04,WeatherDisplay:10.37,2013-03-04 22:44:00,
2013-03-04 15:49:00,30.2,12.4,30.23,NW,306,6.9,6.9,47,0.00,CLR,,0.04,WeatherDisplay:10.37,2013-03-04 22:49:00,
2013-03-04 15:54:00,30.1,11.8,30.23,ENE,61,9.2,9.2,46,0.00,CLR,,0.04,WeatherDisplay:10.37,2013-03-04 22:54:00,
2013-03-04 15:59:00,30.0,11.7,30.23,NW,321,8.1,8.1,46,0.00,CLR,,0.04,WeatherDisplay:10.37,2013-03-04 22:59:00,
2013-03-04 16:04:00,29.9,12.6,30.23,NW,309,10.4,10.4,48,0.00,CLR,,0.04,WeatherDisplay:10.37,2013-03-04 23:04:00,
2013-03-04 16:09:00,29.8,13.4,30.23,NW,313,6.9,6.9,50,0.00,CLR,,0.04,WeatherDisplay:10.37,2013-03-04 23:09:00,
2013-03-04 16:14:00,29.7,12.8,30.23,NW,306,8.1,8.1,49,0.00,CLR,,0.04,WeatherDisplay:10.37,2013-03-04 23:14:00,
2013-03-04 16:19:00,29.5,13.1,30.23,WNW,302,9.2,9.2,50,0.00,CLR,,0.04,WeatherDisplay:10.37,2013-03-04 23:19:00,
2013-03-04 16:24:00,29.4,13.5,30.23,NW,319,8.1,8.1,51,0.00,CLR,,0.04,WeatherDisplay:10.37,2013-03-04 23:24:00,
2013-03-04 16:29:00,29.2,13.3,30.23,WNW,303,6.9,6.9,51,0.00,CLR,,0.04,WeatherDisplay:10.37,2013-03-04 23:29:00,
2013-03-04 16:34:00,29.0,14.0,30.23,WNW,284,11.5,11.5,53,0.00,CLR,,0.04,WeatherDisplay:10.37,2013-03-04 23:34:00,
2013-03-04 16:39:00,28.8,13.8,30.23,WNW,303,8.1,8.1,53,0.00,CLR,,0.04,WeatherDisplay:10.37,2013-03-04 23:39:00,
2013-03-04 16:44:00,28.7,14.1,30.23,WNW,301,11.0,11.0,54,0.00,CLR,,0.04,WeatherDisplay:10.37,2013-03-04 23:44:00,
2013-03-04 16:49:00,28.6,14.5,30.23,West,281,7.0,7.0,55,0.00,CLR,,0.04,WeatherDisplay:10.37,2013-03-04 23:49:00,
2013-03-04 16:54:00,28.5,14.8,30.23,NW,315,4.0,4.0,56,0.00,CLR,,0.04,WeatherDisplay:10.37,2013-03-04 23:54:00,
2013-03-04 16:59:00,28.4,15.1,30.23,WNW,294,7.0,7.0,57,0.00,CLR,,0.04,WeatherDisplay:10.37,2013-03-04 23:59:00,
2013-03-04 17:04:00,28.3,14.6,30.23,NW,322,4.6,4.6,56,0.00,CLR,,0.04,WeatherDisplay:10.37,2013-03-05 00:04:00,
2013-03-04 17:09:00,28.1,14.4,30.23,WNW,301,8.1,8.1,56,0.00,CLR,,0.04,WeatherDisplay:10.37,2013-03-05 00:09:00,
2013-03-04 17:14:00,27.9,14.6,30.24,NW,304,4.6,4.6,57,0.00,CLR,,0.04,WeatherDisplay:10.37,2013-03-05 00:14:00,
2013-03-04 17:19:00,27.8,14.5,30.24,NNW,327,5.8,5.8,57,0.00,CLR,,0.04,WeatherDisplay:10.37,2013-03-05 00:19:00,
2013-03-04 17:24:00,27.6,14.7,30.24,WNW,299,5.8,5.8,58,0.00,CLR,,0.04,WeatherDisplay:10.37,2013-03-05 00:24:00,
2013-03-04 17:29:00,27.4,14.9,30.25,NW,320,4.6,4.6,59,0.00,CLR,,0.04,WeatherDisplay:10.37,2013-03-05 00:29:00,
2013-03-04 17:34:00,27.1,14.7,30.25,NW,304,3.5,3.5,59,0.00,CLR,,0.04,WeatherDisplay:10.37,2013-03-05 00:34:00,
2013-03-04 17:39:00,26.7,14.7,30.26,NW,309,4.6,4.6,60,0.00,CLR,,0.04,WeatherDisplay:10.37,2013-03-05 00:39:00,
2013-03-04 17:44:00,26.5,14.5,30.26,NW,306,5.8,5.8,60,0.00,CLR,,0.04,WeatherDisplay:10.37,2013-03-05 00:44:00,
2013-03-04 17:49:00,26.3,14.7,30.26,NW,309,5.8,5.8,61,0.00,CLR,,0.04,WeatherDisplay:10.37,2013-03-05 00:49:00,
2013-03-04 17:54:00,26.1,14.8,30.26,WNW,286,4.6,4.6,62,0.00,CLR,,0.04,WeatherDisplay:10.37,2013-03-05 00:54:00,
2013-03-04 17:59:00,25.9,14.7,30.27,WNW,298,4.6,4.6,62,0.00,CLR,,0.04,WeatherDisplay:10.37,2013-03-05 00:59:00,
2013-03-04 18:04:00,25.7,14.8,30.27,WNW,298,4.6,4.6,63,0.00,CLR,,0.04,WeatherDisplay:10.37,2013-03-05 01:04:00,
2013-03-04 18:09:00,25.5,15.0,30.27,NW,309,6.0,6.0,64,0.00,CLR,,0.04,WeatherDisplay:10.37,2013-03-05 01:09:00,
2013-03-04 18:14:00,25.2,14.7,30.27,WNW,297,3.0,3.0,64,0.00,CLR,,0.04,WeatherDisplay:10.37,2013-03-05 01:14:00,
2013-03-04 18:19:00,25.1,15.0,30.28,NNE,27,1.1,1.1,65,0.00,CLR,,0.04,WeatherDisplay:10.37,2013-03-05 01:19:00,
2013-03-04 18:24:00,24.9,14.8,30.28,NW,304,2.3,2.3,65,0.00,CLR,,0.04,WeatherDisplay:10.37,2013-03-05 01:24:00,
2013-03-04 18:29:00,24.7,14.6,30.28,NW,304,1.1,1.1,65,0.00,CLR,,0.04,WeatherDisplay:10.37,2013-03-05 01:29:00,
2013-03-04 18:34:00,24.6,14.5,30.28,NW,304,0.0,0.0,65,0.00,CLR,,0.04,WeatherDisplay:10.37,2013-03-05 01:34:00,
2013-03-04 18:39:00,24.4,14.3,30.28,NW,304,0.0,0.0,65,0.00,CLR,,0.04,WeatherDisplay:10.37,2013-03-05 01:39:00,
2013-03-04 18:44:00,24.3,14.2,30.28,WNW,302,1.1,0.0,65,0.00,CLR,,0.04,WeatherDisplay:10.37,2013-03-05 01:44:00,
2013-03-04 18:49:00,24.2,14.5,30.28,WNW,302,0.0,0.0,66,0.00,CLR,,0.04,WeatherDisplay:10.37,2013-03-05 01:49:00,
2013-03-04 18:54:00,24.1,14.4,30.29,WNW,302,0.0,0.0,66,0.00,CLR,,0.04,WeatherDisplay:10.37,2013-03-05 01:54:00,
2013-03-04 18:59:00,23.9,14.2,30.29,WNW,302,0.0,0.0,66,0.00,CLR,,0.04,WeatherDisplay:10.37,2013-03-05 01:59:00,
2013-03-04 19:04:00,23.6,14.2,30.30,NW,317,1.0,1.0,67,0.00,CLR,,0.04,WeatherDisplay:10.37,2013-03-05 02:04:00,
2013-03-04 19:09:00,23.4,14.4,30.30,NW,317,0.0,0.0,68,0.00,CLR,,0.04,WeatherDisplay:10.37,2013-03-05 02:09:00,
2013-03-04 19:14:00,23.1,14.4,30.30,NW,317,0.0,0.0,69,0.00,CLR,,0.04,WeatherDisplay:10.37,2013-03-05 02:14:00,
2013-03-04 19:19:00,22.9,14.2,30.30,NW,317,0.0,0.0,69,0.00,CLR,,0.04,WeatherDisplay:10.37,2013-03-05 02:19:00,
2013-03-04 19:24:00,22.7,14.4,30.30,NW,317,0.0,0.0,70,0.00,CLR,,0.04,WeatherDisplay:10.37,2013-03-05 02:24:00,
2013-03-04 19:29:00,22.6,14.3,30.30,NW,317,0.0,0.0,70,0.00,CLR,,0.04,WeatherDisplay:10.37,2013-03-05 02:29:00,
2013-03-04 19:34:00,22.4,14.1,30.30,NW,317,0.0,0.0,70,0.00,CLR,,0.04,WeatherDisplay:10.37,2013-03-05 02:34:00,
2013-03-04 19:39:00,22.2,13.6,30.30,NW,317,0.0,0.0,69,0.00,CLR,,0.04,WeatherDisplay:10.37,2013-03-05 02:39:00,
2013-03-04 19:44:00,22.0,13.0,30.31,NW,317,1.1,1.1,68,0.00,CLR,,0.04,WeatherDisplay:10.37,2013-03-05 02:44:00,
2013-03-04 19:49:00,21.7,13.1,30.31,NW,317,0.0,0.0,69,0.00,CLR,,0.04,WeatherDisplay:10.37,2013-03-05 02:49:00,
2013-03-04 19:54:00,21.5,13.2,30.31,ESE,112,2.3,2.3,70,0.00,CLR,,0.04,WeatherDisplay:10.37,2013-03-05 02:54:00,
2013-03-04 19:59:00,21.2,12.9,30.31,ESE,113,1.1,0.0,70,0.00,CLR,,0.04,WeatherDisplay:10.37,2013-03-05 02:59:00,
2013-03-04 20:04:00,21.0,13.1,30.32,ESE,113,0.0,0.0,71,0.00,CLR,,0.04,WeatherDisplay:10.37,2013-03-05 03:04:00,
2013-03-04 20:09:00,20.8,12.9,30.31,ESE,113,0.0,0.0,71,0.00,CLR,,0.04,WeatherDisplay:10.37,2013-03-05 03:09:00,
2013-03-04 20:14:00,20.6,13.0,30.32,SE,138,0.0,0.0,72,0.00,CLR,,0.04,WeatherDisplay:10.37,2013-03-05 03:14:00,
2013-03-04 20:19:00,20.4,12.8,30.32,SE,138,0.0,0.0,72,0.00,CLR,,0.04,WeatherDisplay:10.37,2013-03-05 03:19:00,
2013-03-04 20:24:00,20.2,12.9,30.32,SSE,167,0.0,0.0,73,0.00,CLR,,0.04,WeatherDisplay:10.37,2013-03-05 03:24:00,
2013-03-04 20:29:00,19.9,12.3,30.32,South,186,2.3,2.3,72,0.00,CLR,,0.04,WeatherDisplay:10.37,2013-03-05 03:29:00,
2013-03-04 20:34:00,19.7,12.1,30.33,SSW,202,1.1,1.1,72,0.00,CLR,,0.04,WeatherDisplay:10.37,2013-03-05 03:34:00,
2013-03-04 20:39:00,19.5,12.3,30.33,SSW,202,2.3,0.0,73,0.00,CLR,,0.04,WeatherDisplay:10.37,2013-03-05 03:39:00,
2013-03-04 20:44:00,19.4,12.5,30.33,SSW,203,1.1,1.1,74,0.00,CLR,,0.04,WeatherDisplay:10.37,2013-03-05 03:44:00,
2013-03-04 20:49:00,19.3,12.4,30.33,SSW,205,1.1,1.1,74,0.00,CLR,,0.04,WeatherDisplay:10.37,2013-03-05 03:49:00,
2013-03-04 20:54:00,19.2,12.3,30.33,SSW,207,2.3,2.3,74,0.00,CLR,,0.04,WeatherDisplay:10.37,2013-03-05 03:54:00,
2013-03-04 20:59:00,19.1,12.2,30.33,SSW,213,2.3,2.3,74,0.00,CLR,,0.04,WeatherDisplay:10.37,2013-03-05 03:59:00,
2013-03-04 21:04:00,18.9,12.0,30.33,SSW,212,0.0,0.1,74,0.00,CLR,,0.04,WeatherDisplay:10.37,2013-03-05 04:04:00,
2013-03-04 21:09:00,18.8,11.9,30.33,SSW,212,2.0,2.0,74,0.00,CLR,,0.04,WeatherDisplay:10.37,2013-03-05 04:09:00,
2013-03-04 21:14:00,18.6,12.0,30.33,SSW,212,1.1,1.1,75,0.00,CLR,,0.04,WeatherDisplay:10.37,2013-03-05 04:14:00,
2013-03-04 21:19:00,18.5,11.9,30.34,SSW,212,1.1,1.1,75,0.00,CLR,,0.04,WeatherDisplay:10.37,2013-03-05 04:19:00,
2013-03-04 21:24:00,18.4,11.8,30.33,SW,227,1.1,1.1,75,0.00,CLR,,0.04,WeatherDisplay:10.37,2013-03-05 04:24:00,
2013-03-04 21:29:00,18.3,11.7,30.34,SW,227,1.1,1.1,75,0.00,CLR,,0.04,WeatherDisplay:10.37,2013-03-05 04:29:00,
2013-03-04 21:34:00,18.2,11.6,30.34,SW,227,2.3,2.3,75,0.00,CLR,,0.04,WeatherDisplay:10.37,2013-03-05 04:34:00,
2013-03-04 21:39:00,18.1,11.5,30.34,SW,229,2.3,2.3,75,0.00,CLR,,0.04,WeatherDisplay:10.37,2013-03-05 04:39:00,
2013-03-04 21:44:00,17.9,11.6,30.34,SW,224,2.3,2.3,76,0.00,CLR,,0.04,WeatherDisplay:10.37,2013-03-05 04:44:00,
2013-03-04 21:49:00,17.9,11.3,30.34,SW,214,2.3,2.3,75,0.00,CLR,,0.04,WeatherDisplay:10.37,2013-03-05 04:49:00,
2013-03-04 21:54:00,17.8,10.9,30.35,SW,214,0.0,0.0,74,0.00,CLR,,0.04,WeatherDisplay:10.37,2013-03-05 04:54:00,
2013-03-04 21:59:00,17.7,10.8,30.35,SW,214,0.0,0.0,74,0.00,CLR,,0.04,WeatherDisplay:10.37,2013-03-05 04:59:00,
2013-03-04 22:00:00,17.7,10.8,30.35,SW,214,1.0,0.0,74,0.00,CLR,,0.04,WeatherDisplay:10.37,2013-03-05 05:00:00,
2013-03-04 22:02:00,17.7,10.8,30.35,SW,214,0.0,0.0,74,0.00,CLR,,0.04,WeatherDisplay:10.37,2013-03-05 05:02:00,
2013-03-04 22:07:00,17.5,10.6,30.36,SW,214,0.0,0.0,74,0.00,CLR,,0.04,WeatherDisplay:10.37,2013-03-05 05:07:00,
2013-03-04 22:12:00,17.2,10.6,30.36,SW,214,0.0,0.0,75,0.00,CLR,,0.04,WeatherDisplay:10.37,2013-03-05 05:12:00,
2013-03-04 22:17:00,17.0,10.7,30.36,SW,214,0.0,0.0,76,0.00,CLR,,0.04,WeatherDisplay:10.37,2013-03-05 05:17:00,
2013-03-04 22:22:00,16.7,10.4,30.36,SW,214,0.0,0.0,76,0.00,CLR,,0.04,WeatherDisplay:10.37,2013-03-05 05:22:00,
2013-03-04 22:27:00,16.6,10.3,30.36,SW,214,0.0,0.0,76,0.00,CLR,,0.04,WeatherDisplay:10.37,2013-03-05 05:27:00,
2013-03-04 22:32:00,16.3,10.4,30.37,SW,214,0.0,0.0,77,0.00,CLR,,0.04,WeatherDisplay:10.37,2013-03-05 05:32:00,
2013-03-04 22:37:00,16.1,10.2,30.37,SW,214,0.0,0.0,77,0.00,CLR,,0.04,WeatherDisplay:10.37,2013-03-05 05:37:00,
2013-03-04 22:42:00,15.8,9.9,30.37,SW,214,0.0,0.0,77,0.00,CLR,,0.04,WeatherDisplay:10.37,2013-03-05 05:42:00,
2013-03-04 22:47:00,15.6,10.0,30.38,SW,214,0.0,0.0,78,0.00,CLR,,0.04,WeatherDisplay:10.37,2013-03-05 05:47:00,
2013-03-04 22:52:00,15.3,10.0,30.38,SW,214,0.0,0.0,79,0.00,CLR,,0.04,WeatherDisplay:10.37,2013-03-05 05:52:00,
2013-03-04 22:57:00,15.1,9.8,30.38,SW,214,0.0,0.0,79,0.00,CLR,,0.04,WeatherDisplay:10.37,2013-03-05 05:57:00,
2013-03-04 23:02:00,14.9,9.8,30.38,SW,214,0.0,0.0,80,0.00,CLR,,0.04,WeatherDisplay:10.37,2013-03-05 06:02:00,
2013-03-04 23:07:00,14.6,9.6,30.38,SW,214,0.0,0.0,80,0.00,CLR,,0.04,WeatherDisplay:10.37,2013-03-05 06:07:00,
2013-03-04 23:12:00,14.4,9.6,30.38,SW,214,0.0,0.0,81,0.00,CLR,,0.04,WeatherDisplay:10.37,2013-03-05 06:12:00,
2013-03-04 23:17:00,14.3,9.8,30.38,SW,214,0.0,0.0,82,0.00,CLR,,0.04,WeatherDisplay:10.37,2013-03-05 06:17:00,
2013-03-04 23:22:00,14.1,9.6,30.39,SW,214,0.0,0.0,82,0.00,CLR,,0.04,WeatherDisplay:10.37,2013-03-05 06:22:00,
2013-03-04 23:27:00,13.9,9.4,30.38,SW,214,0.0,0.0,82,0.00,CLR,,0.04,WeatherDisplay:10.37,2013-03-05 06:27:00,
2013-03-04 23:32:00,13.7,9.5,30.39,SW,214,0.0,0.0,83,0.00,CLR,,0.04,WeatherDisplay:10.37,2013-03-05 06:32:00,
2013-03-04 23:37:00,13.5,9.3,30.39,SW,214,0.0,0.0,83,0.00,CLR,,0.04,WeatherDisplay:10.37,2013-03-05 06:37:00,
2013-03-04 23:42:00,13.4,9.2,30.40,SW,214,0.0,0.0,83,0.00,CLR,,0.04,WeatherDisplay:10.37,2013-03-05 06:42:00,
2013-03-04 23:47:00,13.2,9.0,30.40,SW,214,0.0,0.0,83,0.00,CLR,,0.04,WeatherDisplay:10.37,2013-03-05 06:47:00,
2013-03-04 23:52:00,13.0,9.1,30.40,SW,214,0.0,0.0,84,0.00,CLR,,0.04,WeatherDisplay:10.37,2013-03-05 06:52:00,
2013-03-04 23:57:00,12.8,8.9,30.40,SW,214,0.0,0.0,84,0.00,CLR,,0.04,WeatherDisplay:10.37,2013-03-05 06:57:00,